createdAt,value
2023-05-25T00:00:16.421Z,99782.14
2023-05-25T00:01:20.411Z,99780.42
2023-05-25T00:02:24.075Z,99786.79
2023-05-25T00:03:27.912Z,99781.41
2023-05-25T00:04:33.106Z,99779.59
2023-05-25T00:05:36.994Z,99787.66
2023-05-25T00:06:40.892Z,99786.79
2023-05-25T00:07:44.275Z,99786.79
2023-05-25T00:08:48.400Z,99785.08
2023-05-25T00:09:51.026Z,99787.77
2023-05-25T00:10:55.083Z,99786.05
2023-05-25T00:11:59.701Z,99786.05
2023-05-25T00:13:02.381Z,99789.59
2023-05-25T00:14:08.697Z,99792.41
2023-05-25T00:15:11.654Z,99790.59
2023-05-25T00:16:16.169Z,99791.57
2023-05-25T00:17:19.963Z,99792.55
2023-05-25T00:18:25.064Z,99788.01
2023-05-25T00:19:28.934Z,99786.33
2023-05-25T00:20:32.677Z,99790.83
2023-05-25T00:21:38.798Z,99787.44
2023-05-25T00:22:44.349Z,99787.58
2023-05-25T00:23:48.172Z,99787.58
2023-05-25T00:24:51.521Z,99782.33
2023-05-25T00:25:54.430Z,99787.70
2023-05-25T00:26:59.471Z,99789.53
2023-05-25T00:28:03.973Z,99785.15
2023-05-25T00:29:07.417Z,99783.30
2023-05-25T00:30:11.701Z,99783.30
2023-05-25T00:31:14.336Z,99785.15
2023-05-25T00:32:17.656Z,99778.89
2023-05-25T00:33:22.595Z,99783.44
2023-05-25T00:34:27.162Z,99782.56
2023-05-25T00:35:31.389Z,99772.80
2023-05-25T00:36:34.460Z,99780.00
2023-05-25T00:37:39.585Z,99775.62
2023-05-25T00:38:43.123Z,99781.02
2023-05-25T00:39:46.663Z,99781.02
2023-05-25T00:40:55.286Z,99777.58
2023-05-25T00:41:58.672Z,99775.87
2023-05-25T00:43:02.550Z,99778.56
2023-05-25T00:44:06.484Z,99777.72
2023-05-25T00:45:12.393Z,99777.72
2023-05-25T00:46:16.426Z,99783.95
2023-05-25T00:47:20.085Z,99779.57
2023-05-25T00:48:27.489Z,99777.85
2023-05-25T00:49:37.042Z,99781.39
2023-05-25T00:50:41.825Z,99780.55
2023-05-25T00:51:46.315Z,99777.02
2023-05-25T00:52:50.073Z,99777.98
2023-05-25T00:53:53.885Z,99774.42
2023-05-25T00:54:56.776Z,99776.27
2023-05-25T00:56:07.051Z,99778.97
2023-05-25T00:57:09.906Z,99777.25
2023-05-25T00:58:14.822Z,99775.56
2023-05-25T00:59:20.661Z,99773.72
2023-05-25T01:00:23.679Z,99777.38
2023-05-25T01:01:28.366Z,99777.38
2023-05-25T01:02:33.009Z,99772.00
2023-05-25T01:03:37.360Z,99769.31
2023-05-25T01:06:22.220Z,99769.51
2023-05-25T01:07:26.553Z,99772.98
2023-05-25T01:08:29.625Z,99772.98
2023-05-25T01:09:46.933Z,99777.52
2023-05-25T01:10:50.029Z,99776.67
2023-05-25T01:11:52.713Z,99779.37
2023-05-25T01:12:55.799Z,99784.75
2023-05-25T01:13:58.648Z,99784.02
2023-05-25T01:15:04.744Z,99783.03
2023-05-25T01:16:09.498Z,99782.20
2023-05-25T01:17:13.496Z,99783.88
2023-05-25T01:18:16.253Z,99774.12
2023-05-25T01:19:21.280Z,99779.50
2023-05-25T01:20:29.690Z,99787.58
2023-05-25T01:21:41.595Z,99775.94
2023-05-25T01:22:53.944Z,99782.20
2023-05-25T01:24:01.400Z,99779.50
2023-05-25T01:26:27.322Z,99776.73
2023-05-25T01:27:46.096Z,99776.67
2023-05-25T01:28:51.322Z,99780.34
2023-05-25T01:29:54.268Z,99782.20
2023-05-25T01:30:58.822Z,99784.14
2023-05-25T01:32:02.511Z,99777.92
2023-05-25T01:33:06.113Z,99781.45
2023-05-25T01:34:12.750Z,99785.02
2023-05-25T01:35:16.578Z,99774.25
2023-05-25T01:36:20.684Z,99781.32
2023-05-25T01:37:25.049Z,99781.45
2023-05-25T01:38:28.074Z,99782.44
2023-05-25T01:39:33.118Z,99777.05
2023-05-25T01:40:38.089Z,99779.73
2023-05-25T01:41:42.236Z,99775.36
2023-05-25T01:42:45.034Z,99776.34
2023-05-25T01:43:47.855Z,99774.48
2023-05-25T01:44:51.055Z,99770.12
2023-05-25T01:45:56.414Z,99780.01
2023-05-25T01:47:28.671Z,99781.86
2023-05-25T01:48:47.728Z,99780.98
2023-05-25T01:49:57.410Z,99778.42
2023-05-25T01:51:02.230Z,99778.42
2023-05-25T01:53:36.741Z,99772.98
2023-05-25T01:54:42.345Z,99777.45
2023-05-25T01:55:51.812Z,99776.74
2023-05-25T01:56:56.821Z,99782.13
2023-05-25T01:57:59.765Z,99784.81
2023-05-25T01:59:02.605Z,99784.69
2023-05-25T02:00:07.593Z,99783.81
2023-05-25T02:02:27.864Z,99787.45
2023-05-25T02:03:31.523Z,99783.81
2023-05-25T02:04:35.688Z,99786.63
2023-05-25T02:05:44.487Z,99786.63
2023-05-25T02:06:49.975Z,99792.89
2023-05-25T02:07:55.340Z,99791.75
2023-05-25T02:08:58.746Z,99797.27
2023-05-25T02:10:03.231Z,99794.44
2023-05-25T02:11:08.487Z,99790.91
2023-05-25T02:12:12.418Z,99805.20
2023-05-25T02:13:15.864Z,99805.20
2023-05-25T02:14:18.403Z,99804.36
2023-05-25T02:15:21.532Z,99799.83
2023-05-25T02:16:24.523Z,99801.67
2023-05-25T02:17:29.298Z,99803.39
2023-05-25T02:18:34.472Z,99802.52
2023-05-25T02:19:37.666Z,99805.20
2023-05-25T02:20:40.877Z,99810.59
2023-05-25T02:21:44.552Z,99810.48
2023-05-25T02:22:47.731Z,99808.77
2023-05-25T02:23:51.863Z,99807.05
2023-05-25T02:24:54.687Z,99800.83
2023-05-25T02:25:58.328Z,99804.36
2023-05-25T02:27:01.261Z,99802.52
2023-05-25T02:28:06.121Z,99802.52
2023-05-25T02:29:11.029Z,99809.61
2023-05-25T02:30:14.951Z,99802.41
2023-05-25T02:31:18.895Z,99810.48
2023-05-25T02:32:24.263Z,99809.61
2023-05-25T02:33:27.293Z,99806.08
2023-05-25T02:34:31.047Z,99809.75
2023-05-25T02:35:34.695Z,99800.09
2023-05-25T02:36:38.885Z,99805.61
2023-05-25T02:37:41.831Z,99808.56
2023-05-25T02:38:47.503Z,99803.45
2023-05-25T02:39:50.916Z,99803.81
2023-05-25T02:40:54.470Z,99805.92
2023-05-25T02:42:00.171Z,99806.28
2023-05-25T02:43:03.095Z,99807.75
2023-05-25T02:44:06.751Z,99808.28
2023-05-25T02:45:10.778Z,99801.61
2023-05-25T02:46:15.872Z,99801.61
2023-05-25T02:47:19.544Z,99808.80
2023-05-25T02:48:22.417Z,99804.66
2023-05-25T02:49:26.563Z,99804.07
2023-05-25T02:50:29.818Z,99807.11
2023-05-25T02:51:34.348Z,99808.34
2023-05-25T02:52:38.802Z,99801.17
2023-05-25T02:53:42.571Z,99801.17
2023-05-25T02:54:46.080Z,99808.98
2023-05-25T02:55:52.263Z,99804.58
2023-05-25T02:56:55.513Z,99808.23
2023-05-25T02:58:00.185Z,99809.24
2023-05-25T02:59:04.891Z,99807.52
2023-05-25T03:00:11.848Z,99812.16
2023-05-25T03:01:19.094Z,99821.22
2023-05-25T03:02:31.583Z,99817.78
2023-05-25T03:03:34.567Z,99812.66
2023-05-25T03:04:39.465Z,99817.19
2023-05-25T03:05:42.662Z,99817.29
2023-05-25T03:06:48.047Z,99818.29
2023-05-25T03:07:52.487Z,99811.45
2023-05-25T03:08:55.339Z,99808.98
2023-05-25T03:09:58.899Z,99811.05
2023-05-25T03:11:01.959Z,99805.05
2023-05-25T03:12:05.873Z,99814.95
2023-05-25T03:13:08.740Z,99814.11
2023-05-25T03:14:13.257Z,99817.64
2023-05-25T03:15:17.361Z,99814.11
2023-05-25T03:16:22.236Z,99810.42
2023-05-25T03:17:25.826Z,99814.83
2023-05-25T03:18:30.405Z,99811.05
2023-05-25T03:19:33.406Z,99811.89
2023-05-25T03:20:36.679Z,99802.73
2023-05-25T03:21:39.397Z,99805.30
2023-05-25T03:22:43.185Z,99806.92
2023-05-25T03:23:47.018Z,99807.66
2023-05-25T03:24:50.969Z,99804.85
2023-05-25T03:25:55.097Z,99810.94
2023-05-25T03:27:00.179Z,99816.94
2023-05-25T03:28:04.724Z,99818.53
2023-05-25T03:29:08.203Z,99821.09
2023-05-25T03:30:14.071Z,99820.70
2023-05-25T03:32:30.279Z,99822.28
2023-05-25T03:33:35.063Z,99815.82
2023-05-25T03:34:37.948Z,99814.73
2023-05-25T03:35:41.599Z,99818.97
2023-05-25T03:37:58.859Z,99805.02
2023-05-25T03:39:03.454Z,99818.09
2023-05-25T03:40:09.091Z,99811.63
2023-05-25T03:41:12.899Z,99819.43
2023-05-25T03:42:16.899Z,99816.52
2023-05-25T03:43:20.298Z,99811.84
2023-05-25T03:44:24.590Z,99815.16
2023-05-25T03:45:28.889Z,99806.95
2023-05-25T03:46:32.101Z,99806.69
2023-05-25T03:47:37.350Z,99815.38
2023-05-25T03:48:41.213Z,99809.86
2023-05-25T03:49:45.102Z,99810.58
2023-05-25T03:50:50.231Z,99814.11
2023-05-25T03:51:53.210Z,99813.03
2023-05-25T03:52:56.792Z,99811.09
2023-05-25T03:55:14.839Z,99815.31
2023-05-25T03:56:17.712Z,99816.95
2023-05-25T03:57:21.190Z,99810.70
2023-05-25T03:58:25.094Z,99814.97
2023-05-25T03:59:29.403Z,99814.97
2023-05-25T04:00:33.251Z,99809.59
2023-05-25T04:01:38.427Z,99809.45
2023-05-25T04:02:41.349Z,99808.48
2023-05-25T04:03:44.611Z,99810.20
2023-05-25T04:04:50.412Z,99812.02
2023-05-25T04:05:55.049Z,99814.57
2023-05-25T04:06:59.647Z,99814.57
2023-05-25T04:08:03.557Z,99816.42
2023-05-25T04:09:07.961Z,99817.39
2023-05-25T04:10:11.645Z,99817.53
2023-05-25T04:11:15.551Z,99817.53
2023-05-25T04:12:19.668Z,99827.58
2023-05-25T04:13:24.375Z,99823.88
2023-05-25T04:14:28.787Z,99820.22
2023-05-25T04:15:34.216Z,99822.06
2023-05-25T04:16:41.507Z,99823.75
2023-05-25T04:17:45.422Z,99827.31
2023-05-25T04:18:49.499Z,99830.72
2023-05-25T04:19:53.452Z,99829.88
2023-05-25T04:20:57.106Z,99824.49
2023-05-25T04:22:00.992Z,99827.19
2023-05-25T04:23:04.894Z,99823.52
2023-05-25T04:24:09.392Z,99827.89
2023-05-25T04:25:13.403Z,99828.77
2023-05-25T04:26:16.788Z,99828.64
2023-05-25T04:27:22.225Z,99823.39
2023-05-25T04:28:27.966Z,99826.92
2023-05-25T04:29:39.719Z,99827.89
2023-05-25T04:30:59.735Z,99832.44
2023-05-25T04:32:05.874Z,99835.26
2023-05-25T04:33:13.836Z,99831.72
2023-05-25T04:34:22.707Z,99830.72
2023-05-25T04:35:28.298Z,99828.90
2023-05-25T04:36:32.375Z,99827.89
2023-05-25T04:37:38.867Z,99832.30
2023-05-25T04:38:43.098Z,99825.11
2023-05-25T04:39:46.414Z,99825.95
2023-05-25T04:40:49.617Z,99827.66
2023-05-25T04:41:55.227Z,99829.48
2023-05-25T04:42:59.672Z,99824.09
2023-05-25T04:44:09.601Z,99823.13
2023-05-25T04:45:10.083Z,99825.81
2023-05-25T04:46:14.014Z,99820.44
2023-05-25T04:47:19.700Z,99824.97
2023-05-25T04:48:24.121Z,99832.17
2023-05-25T04:50:42.479Z,99828.45
2023-05-25T04:51:46.634Z,99828.38
2023-05-25T04:52:50.569Z,99823.97
2023-05-25T04:53:53.996Z,99825.69
2023-05-25T04:54:57.848Z,99833.63
2023-05-25T04:57:15.014Z,99830.88
2023-05-25T04:58:19.165Z,99826.30
2023-05-25T04:59:22.377Z,99826.30
2023-05-25T05:00:27.648Z,99830.67
2023-05-25T05:01:30.894Z,99823.47
2023-05-25T05:02:35.669Z,99827.88
2023-05-25T05:03:38.627Z,99820.78
2023-05-25T05:04:43.051Z,99824.31
2023-05-25T05:05:46.501Z,99828.72
2023-05-25T05:06:51.571Z,99828.72
2023-05-25T05:07:58.279Z,99826.87
2023-05-25T05:09:02.508Z,99827.74
2023-05-25T05:10:08.424Z,99823.20
2023-05-25T05:11:13.556Z,99824.92
2023-05-25T05:12:17.644Z,99820.38
2023-05-25T05:13:23.533Z,99821.25
2023-05-25T05:14:27.338Z,99829.20
2023-05-25T05:15:31.246Z,99823.81
2023-05-25T05:16:35.301Z,99822.80
2023-05-25T05:17:39.082Z,99825.50
2023-05-25T05:18:43.668Z,99824.66
2023-05-25T05:19:46.541Z,99821.96
2023-05-25T05:20:50.604Z,99822.80
2023-05-25T05:21:54.433Z,99818.43
2023-05-25T05:23:01.264Z,99832.73
2023-05-25T05:24:05.268Z,99821.96
2023-05-25T05:25:08.904Z,99827.34
2023-05-25T05:26:13.937Z,99825.50
2023-05-25T05:27:17.301Z,99823.68
2023-05-25T05:28:23.852Z,99827.21
2023-05-25T05:30:40.743Z,99822.64
2023-05-25T05:31:44.054Z,99823.41
2023-05-25T05:32:47.951Z,99827.08
2023-05-25T05:33:51.548Z,99828.93
2023-05-25T05:34:55.054Z,99831.48
2023-05-25T05:36:15.490Z,99834.18
2023-05-25T05:37:20.240Z,99834.05
2023-05-25T05:38:23.077Z,99834.89
2023-05-25T05:39:27.077Z,99837.58
2023-05-25T05:40:31.828Z,99831.36
2023-05-25T05:41:34.665Z,99833.20
2023-05-25T05:42:37.653Z,99836.73
2023-05-25T05:43:42.824Z,99842.13
2023-05-25T05:44:45.444Z,99841.98
2023-05-25T05:45:48.306Z,99840.27
2023-05-25T05:46:51.556Z,99842.13
2023-05-25T05:47:56.710Z,99841.28
2023-05-25T05:49:01.477Z,99838.59
2023-05-25T05:50:06.633Z,99839.56
2023-05-25T05:51:12.329Z,99842.25
2023-05-25T05:52:17.331Z,99844.95
2023-05-25T05:53:21.202Z,99840.54
2023-05-25T05:54:27.011Z,99846.80
2023-05-25T05:55:29.744Z,99847.64
2023-05-25T05:56:34.966Z,99839.56
2023-05-25T05:57:38.525Z,99839.56
2023-05-25T05:58:42.577Z,99839.56
2023-05-25T05:59:46.074Z,99840.41
2023-05-25T06:00:49.650Z,99837.71
2023-05-25T06:01:52.932Z,99841.28
2023-05-25T06:03:16.962Z,99843.97
2023-05-25T06:04:20.015Z,99837.71
2023-05-25T06:05:22.821Z,99836.88
2023-05-25T06:06:28.491Z,99844.95
2023-05-25T06:07:33.715Z,99843.97
2023-05-25T06:08:37.639Z,99842.96
2023-05-25T06:09:42.885Z,99840.41
2023-05-25T06:10:47.106Z,99838.59
2023-05-25T06:11:50.216Z,99840.27
2023-05-25T06:12:54.230Z,99841.98
2023-05-25T06:13:57.186Z,99841.15
2023-05-25T06:15:01.113Z,99846.53
2023-05-25T06:16:09.872Z,99841.98
2023-05-25T06:17:12.586Z,99838.32
2023-05-25T06:18:15.696Z,99839.30
2023-05-25T06:19:19.521Z,99842.96
2023-05-25T06:20:24.613Z,99845.66
2023-05-25T06:21:28.529Z,99846.53
2023-05-25T06:22:32.937Z,99845.66
2023-05-25T06:23:36.288Z,99851.04
2023-05-25T06:24:39.530Z,99852.89
2023-05-25T06:25:43.976Z,99846.66
2023-05-25T06:26:47.618Z,99849.36
2023-05-25T06:27:50.593Z,99846.66
2023-05-25T06:28:53.547Z,99853.73
2023-05-25T06:29:58.585Z,99847.50
2023-05-25T06:31:03.124Z,99850.20
2023-05-25T06:32:07.152Z,99850.20
2023-05-25T06:33:11.529Z,99849.36
2023-05-25T06:34:15.247Z,99853.73
2023-05-25T06:35:21.319Z,99845.79
2023-05-25T06:36:27.442Z,99846.66
2023-05-25T06:37:36.039Z,99852.05
2023-05-25T06:38:39.052Z,99853.02
2023-05-25T06:39:43.998Z,99843.09
2023-05-25T06:40:47.850Z,99850.33
2023-05-25T06:41:52.292Z,99844.95
2023-05-25T06:42:57.413Z,99845.92
2023-05-25T06:44:05.016Z,99840.54
2023-05-25T06:45:10.014Z,99852.18
2023-05-25T06:46:16.161Z,99852.18
2023-05-25T06:47:19.162Z,99844.95
2023-05-25T06:48:23.778Z,99848.61
2023-05-25T06:49:28.524Z,99838.72
2023-05-25T06:50:32.067Z,99835.16
2023-05-25T06:51:36.814Z,99839.56
2023-05-25T06:52:40.520Z,99841.41
2023-05-25T06:53:43.961Z,99838.59
2023-05-25T06:54:46.997Z,99841.28
2023-05-25T06:55:50.294Z,99838.59
2023-05-25T06:56:53.932Z,99842.13
2023-05-25T06:57:57.301Z,99841.15
2023-05-25T06:58:59.955Z,99841.98
2023-05-25T07:00:06.881Z,99839.30
2023-05-25T07:01:09.699Z,99841.98
2023-05-25T07:02:12.220Z,99844.81
2023-05-25T07:03:16.907Z,99840.27
2023-05-25T07:04:22.032Z,99844.81
2023-05-25T07:05:27.639Z,99835.02
2023-05-25T07:06:30.828Z,99842.13
2023-05-25T07:07:34.013Z,99847.50
2023-05-25T07:08:40.813Z,99838.59
2023-05-25T07:09:46.478Z,99840.27
2023-05-25T07:10:50.451Z,99839.43
2023-05-25T07:11:53.959Z,99842.13
2023-05-25T07:12:59.594Z,99835.77
2023-05-25T07:14:02.806Z,99842.96
2023-05-25T07:15:07.800Z,99837.58
2023-05-25T07:16:12.221Z,99834.89
2023-05-25T07:17:15.665Z,99832.09
2023-05-25T07:18:19.353Z,99835.63
2023-05-25T07:19:24.082Z,99835.63
2023-05-25T07:20:28.340Z,99836.47
2023-05-25T07:21:33.219Z,99835.63
2023-05-25T07:22:51.213Z,99834.66
2023-05-25T07:23:55.168Z,99841.86
2023-05-25T07:24:59.208Z,99839.16
2023-05-25T07:26:05.571Z,99837.34
2023-05-25T07:27:07.705Z,99833.78
2023-05-25T07:28:11.150Z,99836.47
2023-05-25T07:29:14.355Z,99828.39
2023-05-25T07:30:17.216Z,99839.30
2023-05-25T07:31:20.206Z,99835.63
2023-05-25T07:32:23.138Z,99836.61
2023-05-25T07:34:41.833Z,99837.55
2023-05-25T07:35:44.965Z,99842.73
2023-05-25T07:36:50.728Z,99840.04
2023-05-25T07:38:03.857Z,99848.11
2023-05-25T07:39:07.118Z,99838.19
2023-05-25T07:40:12.790Z,99841.86
2023-05-25T07:41:15.513Z,99834.78
2023-05-25T07:42:20.035Z,99840.17
2023-05-25T07:43:23.107Z,99841.02
2023-05-25T07:44:25.776Z,99835.63
2023-05-25T07:45:28.799Z,99839.30
2023-05-25T07:46:32.943Z,99841.02
2023-05-25T07:47:36.611Z,99835.63
2023-05-25T07:48:40.356Z,99833.78
2023-05-25T07:49:43.629Z,99831.09
2023-05-25T07:50:47.354Z,99835.50
2023-05-25T07:51:51.363Z,99836.47
2023-05-25T07:52:54.002Z,99833.78
2023-05-25T07:53:57.828Z,99837.34
2023-05-25T07:55:02.468Z,99837.48
2023-05-25T07:56:07.955Z,99832.94
2023-05-25T07:57:10.972Z,99826.71
2023-05-25T07:58:14.623Z,99836.47
2023-05-25T07:59:17.499Z,99835.63
2023-05-25T08:00:21.476Z,99830.25
2023-05-25T08:01:26.953Z,99833.78
2023-05-25T08:02:29.476Z,99827.55
2023-05-25T08:03:48.114Z,99829.27
2023-05-25T08:04:39.915Z,99826.71
2023-05-25T08:05:43.746Z,99834.78
2023-05-25T08:06:46.735Z,99832.94
2023-05-25T08:07:50.058Z,99833.78
2023-05-25T08:08:52.648Z,99828.39
2023-05-25T08:09:55.593Z,99831.96
2023-05-25T08:11:01.664Z,99831.96
2023-05-25T08:12:27.177Z,99831.96
2023-05-25T08:13:10.560Z,99834.66
2023-05-25T08:14:16.247Z,99828.39
2023-05-25T08:15:19.665Z,99823.88
2023-05-25T08:17:36.446Z,99819.41
2023-05-25T08:18:41.689Z,99820.32
2023-05-25T08:19:45.655Z,99822.17
2023-05-25T08:20:49.107Z,99825.70
2023-05-25T08:21:53.102Z,99822.17
2023-05-25T08:22:57.055Z,99813.12
2023-05-25T08:24:03.619Z,99813.95
2023-05-25T08:25:07.469Z,99820.02
2023-05-25T08:26:31.243Z,99813.95
2023-05-25T08:27:18.057Z,99814.94
2023-05-25T08:28:23.660Z,99818.64
2023-05-25T08:29:26.930Z,99811.41
2023-05-25T08:30:31.208Z,99810.56
2023-05-25T08:31:33.976Z,99811.27
2023-05-25T08:32:38.144Z,99806.86
2023-05-25T08:34:55.117Z,99807.66
2023-05-25T08:35:59.346Z,99806.73
2023-05-25T08:37:02.211Z,99805.05
2023-05-25T08:38:06.284Z,99812.11
2023-05-25T08:39:10.272Z,99817.50
2023-05-25T08:40:15.606Z,99811.13
2023-05-25T08:41:18.640Z,99818.37
2023-05-25T08:42:26.499Z,99818.37
2023-05-25T08:43:43.574Z,99820.19
2023-05-25T08:44:48.233Z,99818.37
2023-05-25T08:45:51.001Z,99839.91
2023-05-25T08:46:56.714Z,99836.34
2023-05-25T08:48:00.456Z,99836.34
2023-05-25T08:49:19.449Z,99834.66
2023-05-25T08:50:22.555Z,99842.73
2023-05-25T08:51:36.946Z,99843.57
2023-05-25T08:52:41.826Z,99855.18
2023-05-25T08:53:44.486Z,99863.26
2023-05-25T08:54:49.318Z,99866.08
2023-05-25T08:55:54.451Z,99852.89
2023-05-25T08:57:18.244Z,99867.45
2023-05-25T08:58:30.711Z,99870.28
2023-05-25T09:00:10.820Z,99865.77
2023-05-25T09:01:15.410Z,99859.64
2023-05-25T09:02:52.297Z,99859.52
2023-05-25T09:03:56.312Z,99855.84
2023-05-25T09:05:02.468Z,99855.84
2023-05-25T09:06:06.153Z,99852.31
2023-05-25T09:07:11.277Z,99843.23
2023-05-25T09:08:16.624Z,99840.54
2023-05-25T09:09:19.556Z,99840.54
2023-05-25T09:10:23.272Z,99849.48
2023-05-25T09:11:37.916Z,99844.95
2023-05-25T09:12:35.149Z,99842.25
2023-05-25T09:13:38.308Z,99843.97
2023-05-25T09:14:44.743Z,99844.81
2023-05-25T09:15:49.004Z,99842.25
2023-05-25T09:16:53.889Z,99844.81
2023-05-25T09:17:58.392Z,99835.89
2023-05-25T09:19:01.221Z,99837.58
2023-05-25T09:20:05.578Z,99837.58
2023-05-25T09:21:21.979Z,99832.20
2023-05-25T09:22:25.949Z,99838.32
2023-05-25T09:23:29.344Z,99844.55
2023-05-25T09:24:32.209Z,99846.40
2023-05-25T09:25:35.721Z,99843.70
2023-05-25T09:26:38.811Z,99844.55
2023-05-25T09:27:42.745Z,99835.77
2023-05-25T09:28:47.228Z,99839.43
2023-05-25T09:29:51.395Z,99843.84
2023-05-25T09:30:55.376Z,99840.27
2023-05-25T09:31:58.368Z,99840.41
2023-05-25T09:33:14.650Z,99829.77
2023-05-25T09:34:17.386Z,99829.77
2023-05-25T09:35:22.676Z,99825.27
2023-05-25T09:36:27.777Z,99822.57
2023-05-25T09:37:30.809Z,99820.72
2023-05-25T09:38:34.416Z,99815.34
2023-05-25T09:39:37.865Z,99817.19
2023-05-25T09:40:43.243Z,99821.56
2023-05-25T09:42:01.286Z,99820.72
2023-05-25T09:43:04.587Z,99818.03
2023-05-25T09:44:11.542Z,99812.64
2023-05-25T09:45:15.276Z,99814.50
2023-05-25T09:46:18.286Z,99819.88
2023-05-25T09:47:23.019Z,99816.31
2023-05-25T09:48:26.369Z,99810.92
2023-05-25T09:49:29.500Z,99817.19
2023-05-25T09:50:32.147Z,99807.27
2023-05-25T09:51:37.453Z,99815.20
2023-05-25T09:52:41.937Z,99807.97
2023-05-25T09:53:45.143Z,99804.30
2023-05-25T09:56:04.171Z,99801.30
2023-05-25T09:57:07.279Z,99799.39
2023-05-25T09:58:10.897Z,99787.64
2023-05-25T09:59:14.014Z,99794.84
2023-05-25T10:00:17.769Z,99786.64
2023-05-25T10:01:21.111Z,99778.70
2023-05-25T10:02:23.731Z,99778.70
2023-05-25T10:03:27.329Z,99794.20
2023-05-25T10:04:30.205Z,99793.23
2023-05-25T10:05:35.393Z,99785.15
2023-05-25T10:06:39.835Z,99794.91
2023-05-25T10:07:46.075Z,99788.55
2023-05-25T10:08:50.123Z,99796.63
2023-05-25T10:09:53.318Z,99801.03
2023-05-25T10:10:56.692Z,99803.59
2023-05-25T10:12:02.066Z,99806.15
2023-05-25T10:13:05.240Z,99813.39
2023-05-25T10:14:09.115Z,99811.53
2023-05-25T10:15:12.747Z,99818.64
2023-05-25T10:16:17.123Z,99822.17
2023-05-25T10:17:22.586Z,99826.58
2023-05-25T10:18:27.080Z,99826.58
2023-05-25T10:19:52.112Z,99824.73
2023-05-25T10:20:59.408Z,99824.73
2023-05-25T10:22:07.517Z,99829.27
2023-05-25T10:23:12.329Z,99826.45
2023-05-25T10:24:24.164Z,99827.42
2023-05-25T10:25:35.400Z,99829.14
2023-05-25T10:26:40.024Z,99829.98
2023-05-25T10:29:04.507Z,99821.99
2023-05-25T10:30:09.735Z,99831.83
2023-05-25T10:31:12.546Z,99829.14
2023-05-25T10:32:19.350Z,99829.14
2023-05-25T10:33:21.997Z,99839.91
2023-05-25T10:34:24.674Z,99835.37
2023-05-25T10:35:27.151Z,99839.91
2023-05-25T10:36:31.426Z,99833.55
2023-05-25T10:37:35.791Z,99829.98
2023-05-25T10:38:40.831Z,99825.47
2023-05-25T10:39:44.227Z,99825.47
2023-05-25T10:40:50.171Z,99826.31
2023-05-25T10:41:55.649Z,99822.67
2023-05-25T10:42:58.844Z,99819.10
2023-05-25T10:44:02.684Z,99825.36
2023-05-25T10:45:07.934Z,99829.88
2023-05-25T10:46:13.743Z,99820.82
2023-05-25T10:47:17.494Z,99820.82
2023-05-25T10:48:21.231Z,99819.84
2023-05-25T10:49:35.101Z,99811.77
2023-05-25T10:50:38.299Z,99811.77
2023-05-25T10:51:44.297Z,99813.48
2023-05-25T10:52:50.533Z,99813.48
2023-05-25T10:54:01.461Z,99813.48
2023-05-25T10:55:06.843Z,99807.22
2023-05-25T10:56:12.289Z,99807.09
2023-05-25T10:57:20.241Z,99814.32
2023-05-25T10:58:24.531Z,99808.94
2023-05-25T10:59:29.078Z,99807.09
2023-05-25T11:00:32.443Z,99806.11
2023-05-25T11:01:39.287Z,99810.65
2023-05-25T11:02:56.148Z,99809.78
2023-05-25T11:04:17.704Z,99806.11
2023-05-25T11:05:30.738Z,99810.65
2023-05-25T11:06:41.236Z,99807.95
2023-05-25T11:09:07.615Z,99808.86
2023-05-25T11:11:45.608Z,99801.75
2023-05-25T11:12:50.077Z,99800.86
2023-05-25T11:13:54.246Z,99805.27
2023-05-25T11:15:12.236Z,99811.49
2023-05-25T11:16:31.000Z,99796.31
2023-05-25T11:17:36.259Z,99799.88
2023-05-25T11:18:42.158Z,99800.72
2023-05-25T11:19:50.779Z,99808.80
2023-05-25T11:20:56.956Z,99815.06
2023-05-25T11:22:03.194Z,99814.05
2023-05-25T11:23:25.175Z,99813.34
2023-05-25T11:24:29.578Z,99815.06
2023-05-25T11:25:37.240Z,99808.66
2023-05-25T11:28:10.509Z,99812.28
2023-05-25T11:29:15.535Z,99815.06
2023-05-25T11:30:19.608Z,99811.36
2023-05-25T11:31:35.837Z,99819.44
2023-05-25T11:32:38.812Z,99811.36
2023-05-25T11:33:43.511Z,99818.45
2023-05-25T11:34:55.043Z,99809.53
2023-05-25T11:36:00.019Z,99811.22
2023-05-25T11:37:03.249Z,99809.53
2023-05-25T11:38:07.313Z,99813.91
2023-05-25T11:39:20.919Z,99813.07
2023-05-25T11:40:17.430Z,99818.45
2023-05-25T11:42:36.002Z,99814.84
2023-05-25T11:43:40.317Z,99818.45
2023-05-25T11:44:45.474Z,99819.30
2023-05-25T11:45:57.883Z,99814.79
2023-05-25T11:47:04.777Z,99814.79
2023-05-25T11:48:11.036Z,99817.34
2023-05-25T11:49:14.242Z,99811.09
2023-05-25T11:50:17.361Z,99818.19
2023-05-25T11:51:21.322Z,99807.41
2023-05-25T11:52:24.196Z,99815.49
2023-05-25T11:53:28.581Z,99808.28
2023-05-25T11:54:31.668Z,99805.59
2023-05-25T11:55:36.432Z,99800.20
2023-05-25T11:56:39.227Z,99801.89
2023-05-25T11:57:41.967Z,99798.35
2023-05-25T11:58:51.596Z,99791.98
2023-05-25T11:59:55.981Z,99794.69
2023-05-25T12:01:14.823Z,99795.52
2023-05-25T12:02:18.338Z,99795.52
2023-05-25T12:03:32.147Z,99789.30
2023-05-25T12:04:35.490Z,99796.36
2023-05-25T12:05:39.007Z,99795.52
2023-05-25T12:06:41.915Z,99790.14
2023-05-25T12:07:47.487Z,99788.42
2023-05-25T12:08:51.950Z,99790.14
2023-05-25T12:10:10.405Z,99797.38
2023-05-25T12:11:13.603Z,99787.45
2023-05-25T12:12:16.910Z,99789.30
2023-05-25T12:13:20.133Z,99793.67
2023-05-25T12:14:23.418Z,99785.59
2023-05-25T12:15:27.032Z,99788.28
2023-05-25T12:16:30.577Z,99788.28
2023-05-25T12:17:33.944Z,99785.59
2023-05-25T12:18:36.779Z,99790.98
2023-05-25T12:19:41.302Z,99784.61
2023-05-25T12:20:46.702Z,99776.53
2023-05-25T12:21:51.626Z,99777.41
2023-05-25T12:22:55.544Z,99783.63
2023-05-25T12:23:58.897Z,99784.48
2023-05-25T12:25:05.768Z,99779.96
2023-05-25T12:27:24.684Z,99781.69
2023-05-25T12:28:28.074Z,99788.05
2023-05-25T12:29:30.737Z,99783.63
2023-05-25T12:30:34.962Z,99779.96
2023-05-25T12:31:40.340Z,99781.64
2023-05-25T12:33:03.386Z,99794.14
2023-05-25T12:34:17.682Z,99780.67
2023-05-25T12:35:21.849Z,99780.67
2023-05-25T12:36:52.926Z,99783.22
2023-05-25T12:41:09.693Z,99781.59
2023-05-25T12:42:14.874Z,99793.30
2023-05-25T12:43:19.139Z,99796.13
2023-05-25T12:44:34.925Z,99791.58
2023-05-25T12:45:42.768Z,99790.73
2023-05-25T12:46:47.172Z,99787.17
2023-05-25T12:47:50.458Z,99795.25
2023-05-25T12:48:53.328Z,99791.72
2023-05-25T12:50:14.052Z,99782.79
2023-05-25T12:51:18.244Z,99787.30
2023-05-25T12:52:35.793Z,99779.09
2023-05-25T12:53:51.490Z,99786.33
2023-05-25T12:54:55.051Z,99777.27
2023-05-25T12:56:03.401Z,99784.48
2023-05-25T12:57:13.782Z,99783.50
2023-05-25T12:58:27.144Z,99780.94
2023-05-25T12:59:30.877Z,99779.96
2023-05-25T13:00:35.706Z,99779.09
2023-05-25T13:02:52.159Z,99785.26
2023-05-25T13:03:54.742Z,99796.97
2023-05-25T13:04:57.850Z,99788.05
2023-05-25T13:06:02.737Z,99791.58
2023-05-25T13:07:07.304Z,99796.13
2023-05-25T13:08:10.295Z,99795.11
2023-05-25T13:09:13.867Z,99785.91
2023-05-25T13:10:18.158Z,99796.69
2023-05-25T13:11:20.962Z,99785.91
2023-05-25T13:12:23.871Z,99782.24
2023-05-25T13:13:27.572Z,99787.49
2023-05-25T13:14:30.789Z,99782.11
2023-05-25T13:15:35.399Z,99785.64
2023-05-25T13:16:40.925Z,99784.66